Villalbilla, Spain
Current Conditions -  °F | °C
As of 5:00 AM on Friday 28 Nov 2014 (Local Time) from LETO Reporting Station
Few Clouds Few Clouds  
Wind Chill: 50°   Ceiling: Unl
Heat Index: 50°   Visibility: 6mi
Dew Point: 43°   Wind: 12mph
Humidity: 76%   Direction: 150°SSE
Pressure: 29.15"   Gusts: NA
Location:  40.43°N, 3.3°W
Report Text: LETO 280400Z 15010KT 120V180 9999 FEW040 10/06 Q0987 NOSIG
Loading
Personal Weather Stations






























Interactive Weather Map New forecast layout! Learn more

10-Day Weather Forecast

Advertisements
Track Severe Weather on mobile